sensor_id;sensor_type;location;lat;lon;timestamp;P1;durP1;ratioP1;P2;durP2;ratioP2
54899;SDS011;40801;41.924;25.562;2023-10-31T00:01:08;8.98;;;8.27;;
54899;SDS011;40801;41.924;25.562;2023-10-31T00:03:33;8.75;;;8.10;;
54899;SDS011;40801;41.924;25.562;2023-10-31T00:05:59;9.23;;;8.48;;
54899;SDS011;40801;41.924;25.562;2023-10-31T00:08:24;9.73;;;8.80;;
54899;SDS011;40801;41.924;25.562;2023-10-31T00:10:49;10.00;;;8.80;;
54899;SDS011;40801;41.924;25.562;2023-10-31T00:13:15;10.18;;;9.07;;
54899;SDS011;40801;41.924;25.562;2023-10-31T00:15:40;10.45;;;9.55;;
54899;SDS011;40801;41.924;25.562;2023-10-31T00:18:06;10.18;;;9.32;;
54899;SDS011;40801;41.924;25.562;2023-10-31T00:20:31;9.52;;;8.65;;
54899;SDS011;40801;41.924;25.562;2023-10-31T00:22:57;9.82;;;9.00;;
54899;SDS011;40801;41.924;25.562;2023-10-31T00:25:22;10.13;;;9.30;;
54899;SDS011;40801;41.924;25.562;2023-10-31T00:27:47;9.73;;;8.93;;
54899;SDS011;40801;41.924;25.562;2023-10-31T00:30:13;8.80;;;8.10;;
54899;SDS011;40801;41.924;25.562;2023-10-31T00:32:38;10.45;;;9.65;;
54899;SDS011;40801;41.924;25.562;2023-10-31T00:35:04;10.65;;;9.55;;
54899;SDS011;40801;41.924;25.562;2023-10-31T00:37:29;9.38;;;8.45;;
54899;SDS011;40801;41.924;25.562;2023-10-31T00:39:55;11.52;;;8.77;;
54899;SDS011;40801;41.924;25.562;2023-10-31T00:42:20;9.10;;;8.30;;
54899;SDS011;40801;41.924;25.562;2023-10-31T00:44:46;9.63;;;8.65;;
54899;SDS011;40801;41.924;25.562;2023-10-31T00:47:11;9.38;;;8.60;;
54899;SDS011;40801;41.924;25.562;2023-10-31T00:49:36;9.57;;;8.68;;
54899;SDS011;40801;41.924;25.562;2023-10-31T00:52:02;8.80;;;8.02;;
54899;SDS011;40801;41.924;25.562;2023-10-31T00:54:28;9.57;;;8.70;;
54899;SDS011;40801;41.924;25.562;2023-10-31T00:56:53;9.18;;;8.38;;
54899;SDS011;40801;41.924;25.562;2023-10-31T00:59:18;9.07;;;8.25;;
54899;SDS011;40801;41.924;25.562;2023-10-31T01:01:44;12.40;;;8.90;;
54899;SDS011;40801;41.924;25.562;2023-10-31T01:04:09;8.77;;;7.88;;
54899;SDS011;40801;41.924;25.562;2023-10-31T01:06:41;10.93;;;8.50;;
54899;SDS011;40801;41.924;25.562;2023-10-31T01:09:07;9.65;;;8.57;;
54899;SDS011;40801;41.924;25.562;2023-10-31T01:11:32;9.25;;;8.35;;
54899;SDS011;40801;41.924;25.562;2023-10-31T01:13:58;9.30;;;8.23;;
54899;SDS011;40801;41.924;25.562;2023-10-31T01:16:23;8.93;;;8.15;;
54899;SDS011;40801;41.924;25.562;2023-10-31T01:18:48;7.95;;;7.32;;
54899;SDS011;40801;41.924;25.562;2023-10-31T01:21:14;8.13;;;7.53;;
54899;SDS011;40801;41.924;25.562;2023-10-31T01:23:39;8.73;;;7.85;;
54899;SDS011;40801;41.924;25.562;2023-10-31T01:26:05;8.43;;;7.82;;
54899;SDS011;40801;41.924;25.562;2023-10-31T01:28:30;8.95;;;8.15;;
54899;SDS011;40801;41.924;25.562;2023-10-31T01:30:55;9.15;;;8.45;;
54899;SDS011;40801;41.924;25.562;2023-10-31T01:33:21;9.18;;;8.43;;
54899;SDS011;40801;41.924;25.562;2023-10-31T01:35:46;9.07;;;8.25;;
54899;SDS011;40801;41.924;25.562;2023-10-31T01:38:11;8.93;;;8.15;;
54899;SDS011;40801;41.924;25.562;2023-10-31T01:40:37;10.02;;;8.80;;
54899;SDS011;40801;41.924;25.562;2023-10-31T01:43:02;8.75;;;7.90;;
54899;SDS011;40801;41.924;25.562;2023-10-31T01:45:27;8.57;;;7.93;;
54899;SDS011;40801;41.924;25.562;2023-10-31T01:47:53;8.95;;;8.25;;
54899;SDS011;40801;41.924;25.562;2023-10-31T01:50:18;8.43;;;7.68;;
54899;SDS011;40801;41.924;25.562;2023-10-31T01:52:44;8.77;;;8.07;;
54899;SDS011;40801;41.924;25.562;2023-10-31T01:55:10;8.60;;;7.93;;
54899;SDS011;40801;41.924;25.562;2023-10-31T01:57:36;8.95;;;8.02;;
54899;SDS011;40801;41.924;25.562;2023-10-31T02:00:02;9.52;;;8.73;;
54899;SDS011;40801;41.924;25.562;2023-10-31T02:02:28;9.00;;;7.70;;
54899;SDS011;40801;41.924;25.562;2023-10-31T02:04:58;8.38;;;7.55;;
54899;SDS011;40801;41.924;25.562;2023-10-31T02:07:24;8.35;;;7.55;;
54899;SDS011;40801;41.924;25.562;2023-10-31T02:09:49;8.98;;;7.97;;
54899;SDS011;40801;41.924;25.562;2023-10-31T02:12:34;7.85;;;7.20;;
54899;SDS011;40801;41.924;25.562;2023-10-31T02:15:00;8.13;;;7.60;;
54899;SDS011;40801;41.924;25.562;2023-10-31T02:17:26;8.48;;;7.68;;
54899;SDS011;40801;41.924;25.562;2023-10-31T02:19:51;9.38;;;8.48;;
54899;SDS011;40801;41.924;25.562;2023-10-31T02:22:16;8.88;;;8.07;;
54899;SDS011;40801;41.924;25.562;2023-10-31T02:24:42;9.60;;;8.75;;
54899;SDS011;40801;41.924;25.562;2023-10-31T02:27:07;7.82;;;7.22;;
54899;SDS011;40801;41.924;25.562;2023-10-31T02:29:33;8.77;;;7.85;;
54899;SDS011;40801;41.924;25.562;2023-10-31T02:31:58;9.20;;;8.30;;
54899;SDS011;40801;41.924;25.562;2023-10-31T02:34:24;9.15;;;8.55;;
54899;SDS011;40801;41.924;25.562;2023-10-31T02:36:51;8.52;;;7.63;;
54899;SDS011;40801;41.924;25.562;2023-10-31T02:39:16;9.73;;;8.27;;
54899;SDS011;40801;41.924;25.562;2023-10-31T02:41:42;8.57;;;7.80;;
54899;SDS011;40801;41.924;25.562;2023-10-31T02:44:07;9.45;;;8.55;;
54899;SDS011;40801;41.924;25.562;2023-10-31T02:46:37;9.27;;;8.45;;
54899;SDS011;40801;41.924;25.562;2023-10-31T02:49:03;9.20;;;8.38;;
54899;SDS011;40801;41.924;25.562;2023-10-31T02:51:28;9.10;;;7.93;;
54899;SDS011;40801;41.924;25.562;2023-10-31T02:53:53;8.82;;;8.18;;
54899;SDS011;40801;41.924;25.562;2023-10-31T02:56:19;8.40;;;7.90;;
54899;SDS011;40801;41.924;25.562;2023-10-31T02:58:44;8.20;;;7.63;;
54899;SDS011;40801;41.924;25.562;2023-10-31T03:01:10;8.70;;;8.00;;
54899;SDS011;40801;41.924;25.562;2023-10-31T03:03:36;8.75;;;7.72;;
54899;SDS011;40801;41.924;25.562;2023-10-31T03:06:02;9.85;;;8.82;;
54899;SDS011;40801;41.924;25.562;2023-10-31T03:08:30;10.82;;;8.73;;
54899;SDS011;40801;41.924;25.562;2023-10-31T03:10:55;9.02;;;8.23;;
54899;SDS011;40801;41.924;25.562;2023-10-31T03:13:21;8.93;;;8.13;;
54899;SDS011;40801;41.924;25.562;2023-10-31T03:15:46;9.40;;;7.63;;
54899;SDS011;40801;41.924;25.562;2023-10-31T03:18:12;8.18;;;7.57;;
54899;SDS011;40801;41.924;25.562;2023-10-31T03:20:39;8.68;;;7.95;;
54899;SDS011;40801;41.924;25.562;2023-10-31T03:23:05;9.65;;;8.75;;
54899;SDS011;40801;41.924;25.562;2023-10-31T03:25:30;10.73;;;8.93;;
54899;SDS011;40801;41.924;25.562;2023-10-31T03:27:56;9.45;;;8.55;;
54899;SDS011;40801;41.924;25.562;2023-10-31T03:30:21;8.88;;;8.13;;
54899;SDS011;40801;41.924;25.562;2023-10-31T03:32:47;9.05;;;8.13;;
54899;SDS011;40801;41.924;25.562;2023-10-31T03:35:12;8.00;;;7.35;;
54899;SDS011;40801;41.924;25.562;2023-10-31T03:37:37;10.60;;;8.95;;
54899;SDS011;40801;41.924;25.562;2023-10-31T03:40:07;9.25;;;8.35;;
54899;SDS011;40801;41.924;25.562;2023-10-31T03:42:33;8.85;;;8.25;;
54899;SDS011;40801;41.924;25.562;2023-10-31T03:44:59;10.38;;;8.68;;
54899;SDS011;40801;41.924;25.562;2023-10-31T03:47:24;9.50;;;8.50;;
54899;SDS011;40801;41.924;25.562;2023-10-31T03:49:49;14.80;;;9.38;;
54899;SDS011;40801;41.924;25.562;2023-10-31T03:52:15;9.65;;;8.77;;
54899;SDS011;40801;41.924;25.562;2023-10-31T03:54:40;10.45;;;9.35;;
54899;SDS011;40801;41.924;25.562;2023-10-31T03:57:05;9.07;;;8.05;;
54899;SDS011;40801;41.924;25.562;2023-10-31T03:59:31;8.75;;;8.15;;
54899;SDS011;40801;41.924;25.562;2023-10-31T04:01:56;9.80;;;9.02;;
54899;SDS011;40801;41.924;25.562;2023-10-31T04:04:22;9.48;;;8.57;;
54899;SDS011;40801;41.924;25.562;2023-10-31T04:06:47;9.38;;;8.57;;
54899;SDS011;40801;41.924;25.562;2023-10-31T04:09:12;9.80;;;8.98;;
54899;SDS011;40801;41.924;25.562;2023-10-31T04:11:39;9.13;;;8.40;;
54899;SDS011;40801;41.924;25.562;2023-10-31T04:14:04;9.20;;;8.50;;
54899;SDS011;40801;41.924;25.562;2023-10-31T04:16:30;10.05;;;9.23;;
54899;SDS011;40801;41.924;25.562;2023-10-31T04:18:56;9.48;;;8.63;;
54899;SDS011;40801;41.924;25.562;2023-10-31T04:21:21;9.25;;;8.32;;
54899;SDS011;40801;41.924;25.562;2023-10-31T04:23:47;8.77;;;8.02;;
54899;SDS011;40801;41.924;25.562;2023-10-31T04:26:12;9.27;;;8.35;;
54899;SDS011;40801;41.924;25.562;2023-10-31T04:28:38;8.55;;;7.85;;
54899;SDS011;40801;41.924;25.562;2023-10-31T04:31:04;8.63;;;8.05;;
54899;SDS011;40801;41.924;25.562;2023-10-31T04:33:29;8.52;;;7.93;;
54899;SDS011;40801;41.924;25.562;2023-10-31T04:35:55;11.15;;;8.50;;
54899;SDS011;40801;41.924;25.562;2023-10-31T04:38:20;10.95;;;8.77;;
54899;SDS011;40801;41.924;25.562;2023-10-31T04:40:46;8.90;;;8.18;;
54899;SDS011;40801;41.924;25.562;2023-10-31T04:43:11;9.77;;;8.82;;
54899;SDS011;40801;41.924;25.562;2023-10-31T04:45:37;9.30;;;8.57;;
54899;SDS011;40801;41.924;25.562;2023-10-31T04:48:02;11.38;;;9.65;;
54899;SDS011;40801;41.924;25.562;2023-10-31T04:50:28;10.48;;;9.68;;
54899;SDS011;40801;41.924;25.562;2023-10-31T04:52:53;10.32;;;9.43;;
54899;SDS011;40801;41.924;25.562;2023-10-31T04:55:19;10.85;;;9.40;;
54899;SDS011;40801;41.924;25.562;2023-10-31T04:57:44;9.95;;;9.15;;
54899;SDS011;40801;41.924;25.562;2023-10-31T05:00:10;11.25;;;10.15;;
54899;SDS011;40801;41.924;25.562;2023-10-31T05:02:35;12.43;;;11.50;;
54899;SDS011;40801;41.924;25.562;2023-10-31T05:05:01;13.68;;;12.60;;
54899;SDS011;40801;41.924;25.562;2023-10-31T05:07:26;16.52;;;15.10;;
54899;SDS011;40801;41.924;25.562;2023-10-31T05:09:52;17.77;;;16.30;;
54899;SDS011;40801;41.924;25.562;2023-10-31T05:12:17;75.93;;;61.65;;
54899;SDS011;40801;41.924;25.562;2023-10-31T05:14:43;17.05;;;15.60;;
54899;SDS011;40801;41.924;25.562;2023-10-31T05:17:08;16.92;;;15.18;;
54899;SDS011;40801;41.924;25.562;2023-10-31T05:19:33;17.90;;;16.08;;
54899;SDS011;40801;41.924;25.562;2023-10-31T05:21:59;16.13;;;14.55;;
54899;SDS011;40801;41.924;25.562;2023-10-31T05:24:24;27.63;;;24.83;;
54899;SDS011;40801;41.924;25.562;2023-10-31T05:26:49;14.20;;;12.63;;
54899;SDS011;40801;41.924;25.562;2023-10-31T05:29:15;13.65;;;12.43;;
54899;SDS011;40801;41.924;25.562;2023-10-31T05:31:40;14.75;;;13.15;;
54899;SDS011;40801;41.924;25.562;2023-10-31T05:34:06;13.95;;;12.77;;
54899;SDS011;40801;41.924;25.562;2023-10-31T05:36:32;13.65;;;12.25;;
54899;SDS011;40801;41.924;25.562;2023-10-31T05:38:57;14.60;;;13.13;;
54899;SDS011;40801;41.924;25.562;2023-10-31T05:41:23;14.90;;;12.80;;
54899;SDS011;40801;41.924;25.562;2023-10-31T05:43:48;13.32;;;12.05;;
54899;SDS011;40801;41.924;25.562;2023-10-31T05:46:14;18.58;;;12.23;;
54899;SDS011;40801;41.924;25.562;2023-10-31T05:48:40;14.13;;;12.05;;
54899;SDS011;40801;41.924;25.562;2023-10-31T05:51:13;11.85;;;10.80;;
54899;SDS011;40801;41.924;25.562;2023-10-31T05:53:39;15.85;;;14.23;;
54899;SDS011;40801;41.924;25.562;2023-10-31T05:56:06;13.93;;;12.50;;
54899;SDS011;40801;41.924;25.562;2023-10-31T05:58:35;14.07;;;12.55;;
54899;SDS011;40801;41.924;25.562;2023-10-31T06:01:02;16.10;;;12.13;;
54899;SDS011;40801;41.924;25.562;2023-10-31T06:03:27;14.82;;;13.27;;
54899;SDS011;40801;41.924;25.562;2023-10-31T06:05:52;14.02;;;12.75;;
54899;SDS011;40801;41.924;25.562;2023-10-31T06:08:18;12.50;;;11.27;;
54899;SDS011;40801;41.924;25.562;2023-10-31T06:10:43;15.57;;;13.90;;
54899;SDS011;40801;41.924;25.562;2023-10-31T06:13:09;16.45;;;13.75;;
54899;SDS011;40801;41.924;25.562;2023-10-31T06:15:34;14.70;;;13.30;;
54899;SDS011;40801;41.924;25.562;2023-10-31T06:17:59;19.50;;;14.85;;
54899;SDS011;40801;41.924;25.562;2023-10-31T06:20:25;19.33;;;15.75;;
54899;SDS011;40801;41.924;25.562;2023-10-31T06:22:51;19.15;;;17.15;;
54899;SDS011;40801;41.924;25.562;2023-10-31T06:25:16;18.45;;;15.48;;
54899;SDS011;40801;41.924;25.562;2023-10-31T06:27:42;19.35;;;17.45;;
54899;SDS011;40801;41.924;25.562;2023-10-31T06:30:07;18.27;;;16.48;;
54899;SDS011;40801;41.924;25.562;2023-10-31T06:32:33;17.95;;;16.25;;
54899;SDS011;40801;41.924;25.562;2023-10-31T06:34:58;16.90;;;15.25;;
54899;SDS011;40801;41.924;25.562;2023-10-31T06:37:24;17.95;;;15.98;;
54899;SDS011;40801;41.924;25.562;2023-10-31T06:39:49;17.13;;;15.65;;
54899;SDS011;40801;41.924;25.562;2023-10-31T06:42:15;16.42;;;14.93;;
54899;SDS011;40801;41.924;25.562;2023-10-31T06:44:40;18.33;;;16.52;;
54899;SDS011;40801;41.924;25.562;2023-10-31T06:47:05;18.88;;;17.23;;
54899;SDS011;40801;41.924;25.562;2023-10-31T06:49:31;17.17;;;14.95;;
54899;SDS011;40801;41.924;25.562;2023-10-31T06:51:56;16.80;;;14.95;;
54899;SDS011;40801;41.924;25.562;2023-10-31T06:54:21;15.45;;;13.25;;
54899;SDS011;40801;41.924;25.562;2023-10-31T06:56:47;15.00;;;13.25;;
54899;SDS011;40801;41.924;25.562;2023-10-31T06:59:12;16.48;;;12.65;;
54899;SDS011;40801;41.924;25.562;2023-10-31T07:01:37;19.63;;;13.45;;
54899;SDS011;40801;41.924;25.562;2023-10-31T07:04:03;13.68;;;12.13;;
54899;SDS011;40801;41.924;25.562;2023-10-31T07:06:29;18.58;;;12.98;;
54899;SDS011;40801;41.924;25.562;2023-10-31T07:08:54;14.48;;;13.07;;
54899;SDS011;40801;41.924;25.562;2023-10-31T07:11:19;14.73;;;13.32;;
54899;SDS011;40801;41.924;25.562;2023-10-31T07:13:45;18.70;;;13.43;;
54899;SDS011;40801;41.924;25.562;2023-10-31T07:16:10;15.13;;;13.23;;
54899;SDS011;40801;41.924;25.562;2023-10-31T07:18:35;13.90;;;12.50;;
54899;SDS011;40801;41.924;25.562;2023-10-31T07:21:01;13.85;;;11.68;;
54899;SDS011;40801;41.924;25.562;2023-10-31T07:23:26;15.32;;;11.73;;
54899;SDS011;40801;41.924;25.562;2023-10-31T07:25:52;12.85;;;10.93;;
54899;SDS011;40801;41.924;25.562;2023-10-31T07:28:17;14.45;;;12.13;;
54899;SDS011;40801;41.924;25.562;2023-10-31T07:30:43;12.85;;;11.45;;
54899;SDS011;40801;41.924;25.562;2023-10-31T07:33:09;15.18;;;10.98;;
54899;SDS011;40801;41.924;25.562;2023-10-31T07:35:34;12.60;;;11.13;;
54899;SDS011;40801;41.924;25.562;2023-10-31T07:37:59;13.73;;;10.98;;
54899;SDS011;40801;41.924;25.562;2023-10-31T07:40:25;14.43;;;10.98;;
54899;SDS011;40801;41.924;25.562;2023-10-31T07:42:50;24.27;;;11.55;;
54899;SDS011;40801;41.924;25.562;2023-10-31T07:45:15;18.17;;;11.98;;
54899;SDS011;40801;41.924;25.562;2023-10-31T07:47:41;13.70;;;10.90;;
54899;SDS011;40801;41.924;25.562;2023-10-31T07:50:06;14.45;;;12.30;;
54899;SDS011;40801;41.924;25.562;2023-10-31T07:52:32;14.20;;;10.27;;
54899;SDS011;40801;41.924;25.562;2023-10-31T07:54:57;13.13;;;11.50;;
54899;SDS011;40801;41.924;25.562;2023-10-31T07:57:22;12.23;;;10.63;;
54899;SDS011;40801;41.924;25.562;2023-10-31T07:59:48;13.82;;;10.45;;
54899;SDS011;40801;41.924;25.562;2023-10-31T08:02:13;13.32;;;10.10;;
54899;SDS011;40801;41.924;25.562;2023-10-31T08:04:39;15.48;;;11.68;;
54899;SDS011;40801;41.924;25.562;2023-10-31T08:07:04;10.60;;;8.88;;
54899;SDS011;40801;41.924;25.562;2023-10-31T08:09:29;10.27;;;8.32;;
54899;SDS011;40801;41.924;25.562;2023-10-31T08:11:55;9.75;;;8.95;;
54899;SDS011;40801;41.924;25.562;2023-10-31T08:14:20;12.98;;;9.93;;
54899;SDS011;40801;41.924;25.562;2023-10-31T08:16:47;11.05;;;9.93;;
54899;SDS011;40801;41.924;25.562;2023-10-31T08:19:12;11.68;;;9.55;;
54899;SDS011;40801;41.924;25.562;2023-10-31T08:21:39;10.18;;;8.60;;
54899;SDS011;40801;41.924;25.562;2023-10-31T08:24:05;12.23;;;8.90;;
54899;SDS011;40801;41.924;25.562;2023-10-31T08:26:31;9.75;;;8.75;;
54899;SDS011;40801;41.924;25.562;2023-10-31T08:28:57;12.75;;;10.20;;
54899;SDS011;40801;41.924;25.562;2023-10-31T08:31:22;11.18;;;9.93;;
54899;SDS011;40801;41.924;25.562;2023-10-31T08:33:48;10.82;;;9.63;;
54899;SDS011;40801;41.924;25.562;2023-10-31T08:36:14;12.15;;;10.63;;
54899;SDS011;40801;41.924;25.562;2023-10-31T08:38:39;11.50;;;9.15;;
54899;SDS011;40801;41.924;25.562;2023-10-31T08:41:04;11.57;;;9.65;;
54899;SDS011;40801;41.924;25.562;2023-10-31T08:43:30;11.05;;;9.57;;
54899;SDS011;40801;41.924;25.562;2023-10-31T08:45:55;9.80;;;8.52;;
54899;SDS011;40801;41.924;25.562;2023-10-31T08:48:21;7.53;;;6.80;;
54899;SDS011;40801;41.924;25.562;2023-10-31T08:50:46;7.90;;;6.90;;
54899;SDS011;40801;41.924;25.562;2023-10-31T08:53:12;11.35;;;6.75;;
54899;SDS011;40801;41.924;25.562;2023-10-31T08:55:37;7.30;;;6.57;;
54899;SDS011;40801;41.924;25.562;2023-10-31T08:58:03;10.70;;;6.85;;
54899;SDS011;40801;41.924;25.562;2023-10-31T09:00:28;12.93;;;10.80;;
54899;SDS011;40801;41.924;25.562;2023-10-31T09:02:54;6.13;;;5.03;;
54899;SDS011;40801;41.924;25.562;2023-10-31T09:05:19;6.85;;;6.00;;
54899;SDS011;40801;41.924;25.562;2023-10-31T09:07:45;7.03;;;6.43;;
54899;SDS011;40801;41.924;25.562;2023-10-31T09:10:11;6.53;;;5.32;;
54899;SDS011;40801;41.924;25.562;2023-10-31T09:12:37;7.45;;;5.75;;
54899;SDS011;40801;41.924;25.562;2023-10-31T09:15:02;8.07;;;6.20;;
54899;SDS011;40801;41.924;25.562;2023-10-31T09:17:28;7.70;;;6.22;;
54899;SDS011;40801;41.924;25.562;2023-10-31T09:19:54;8.45;;;5.22;;
54899;SDS011;40801;41.924;25.562;2023-10-31T09:22:20;8.35;;;5.47;;
54899;SDS011;40801;41.924;25.562;2023-10-31T09:24:45;7.30;;;5.30;;
54899;SDS011;40801;41.924;25.562;2023-10-31T09:27:10;7.68;;;6.15;;
54899;SDS011;40801;41.924;25.562;2023-10-31T09:29:36;7.30;;;4.97;;
54899;SDS011;40801;41.924;25.562;2023-10-31T09:32:01;5.28;;;4.78;;
54899;SDS011;40801;41.924;25.562;2023-10-31T09:34:28;6.47;;;5.10;;
54899;SDS011;40801;41.924;25.562;2023-10-31T09:36:53;6.95;;;4.57;;
54899;SDS011;40801;41.924;25.562;2023-10-31T09:39:19;10.98;;;9.57;;
54899;SDS011;40801;41.924;25.562;2023-10-31T09:41:44;5.68;;;4.82;;
54899;SDS011;40801;41.924;25.562;2023-10-31T09:44:10;4.90;;;4.38;;
54899;SDS011;40801;41.924;25.562;2023-10-31T09:46:35;4.40;;;3.85;;
54899;SDS011;40801;41.924;25.562;2023-10-31T09:49:02;6.65;;;5.95;;
54899;SDS011;40801;41.924;25.562;2023-10-31T09:51:28;6.70;;;6.05;;
54899;SDS011;40801;41.924;25.562;2023-10-31T09:53:54;7.45;;;4.70;;
54899;SDS011;40801;41.924;25.562;2023-10-31T09:56:21;8.53;;;4.83;;
54899;SDS011;40801;41.924;25.562;2023-10-31T09:58:46;5.00;;;4.25;;
54899;SDS011;40801;41.924;25.562;2023-10-31T10:01:12;6.65;;;4.60;;
54899;SDS011;40801;41.924;25.562;2023-10-31T10:03:40;6.95;;;4.90;;
54899;SDS011;40801;41.924;25.562;2023-10-31T10:06:05;7.53;;;5.25;;
54899;SDS011;40801;41.924;25.562;2023-10-31T10:08:31;5.88;;;4.97;;
54899;SDS011;40801;41.924;25.562;2023-10-31T10:10:57;5.25;;;4.28;;
54899;SDS011;40801;41.924;25.562;2023-10-31T10:13:22;5.95;;;4.88;;
54899;SDS011;40801;41.924;25.562;2023-10-31T10:15:49;5.35;;;4.85;;
54899;SDS011;40801;41.924;25.562;2023-10-31T10:18:29;11.63;;;5.32;;
54899;SDS011;40801;41.924;25.562;2023-10-31T10:21:00;5.78;;;5.07;;
54899;SDS011;40801;41.924;25.562;2023-10-31T10:23:26;5.60;;;5.10;;
54899;SDS011;40801;41.924;25.562;2023-10-31T10:25:53;9.05;;;5.18;;
54899;SDS011;40801;41.924;25.562;2023-10-31T10:28:19;15.63;;;12.15;;
54899;SDS011;40801;41.924;25.562;2023-10-31T10:30:48;7.93;;;6.07;;
54899;SDS011;40801;41.924;25.562;2023-10-31T10:33:14;24.63;;;22.33;;
54899;SDS011;40801;41.924;25.562;2023-10-31T10:35:40;8.75;;;6.75;;
54899;SDS011;40801;41.924;25.562;2023-10-31T10:38:08;7.90;;;5.82;;
54899;SDS011;40801;41.924;25.562;2023-10-31T10:40:41;5.68;;;5.00;;
54899;SDS011;40801;41.924;25.562;2023-10-31T10:43:23;4.65;;;4.18;;
54899;SDS011;40801;41.924;25.562;2023-10-31T10:48:21;8.40;;;4.97;;
54899;SDS011;40801;41.924;25.562;2023-10-31T10:50:56;6.95;;;4.85;;
54899;SDS011;40801;41.924;25.562;2023-10-31T10:53:25;11.63;;;10.48;;
54899;SDS011;40801;41.924;25.562;2023-10-31T10:55:55;36.33;;;33.13;;
54899;SDS011;40801;41.924;25.562;2023-10-31T11:01:17;5.80;;;4.80;;
54899;SDS011;40801;41.924;25.562;2023-10-31T11:03:44;7.78;;;5.30;;
54899;SDS011;40801;41.924;25.562;2023-10-31T11:08:37;5.35;;;4.60;;
54899;SDS011;40801;41.924;25.562;2023-10-31T11:11:03;9.32;;;4.95;;
54899;SDS011;40801;41.924;25.562;2023-10-31T11:13:30;7.27;;;4.87;;
54899;SDS011;40801;41.924;25.562;2023-10-31T11:15:57;6.25;;;5.05;;
54899;SDS011;40801;41.924;25.562;2023-10-31T11:18:26;6.28;;;5.40;;
54899;SDS011;40801;41.924;25.562;2023-10-31T11:20:52;6.25;;;5.47;;
54899;SDS011;40801;41.924;25.562;2023-10-31T11:23:18;7.00;;;4.93;;
54899;SDS011;40801;41.924;25.562;2023-10-31T11:25:44;5.75;;;4.95;;
54899;SDS011;40801;41.924;25.562;2023-10-31T11:28:16;6.85;;;5.35;;
54899;SDS011;40801;41.924;25.562;2023-10-31T11:30:43;8.63;;;6.07;;
54899;SDS011;40801;41.924;25.562;2023-10-31T11:33:12;5.68;;;5.00;;
54899;SDS011;40801;41.924;25.562;2023-10-31T11:35:39;6.57;;;6.00;;
54899;SDS011;40801;41.924;25.562;2023-10-31T11:38:06;5.78;;;5.28;;
54899;SDS011;40801;41.924;25.562;2023-10-31T11:40:34;6.82;;;5.05;;
54899;SDS011;40801;41.924;25.562;2023-10-31T11:43:04;5.90;;;4.70;;
54899;SDS011;40801;41.924;25.562;2023-10-31T11:45:40;5.82;;;4.63;;
54899;SDS011;40801;41.924;25.562;2023-10-31T11:48:07;6.60;;;4.68;;
54899;SDS011;40801;41.924;25.562;2023-10-31T11:50:35;5.60;;;5.10;;
54899;SDS011;40801;41.924;25.562;2023-10-31T11:53:11;5.75;;;4.95;;
54899;SDS011;40801;41.924;25.562;2023-10-31T11:55:41;5.57;;;4.82;;
54899;SDS011;40801;41.924;25.562;2023-10-31T11:58:15;7.30;;;5.15;;
54899;SDS011;40801;41.924;25.562;2023-10-31T12:00:47;5.38;;;4.55;;
54899;SDS011;40801;41.924;25.562;2023-10-31T12:03:17;5.28;;;4.70;;
54899;SDS011;40801;41.924;25.562;2023-10-31T12:05:57;5.90;;;4.38;;
54899;SDS011;40801;41.924;25.562;2023-10-31T12:08:30;10.60;;;5.18;;
54899;SDS011;40801;41.924;25.562;2023-10-31T12:11:04;5.03;;;4.50;;
54899;SDS011;40801;41.924;25.562;2023-10-31T12:13:29;9.40;;;3.78;;
54899;SDS011;40801;41.924;25.562;2023-10-31T12:15:54;5.05;;;3.30;;
54899;SDS011;40801;41.924;25.562;2023-10-31T12:18:20;3.28;;;1.92;;
54899;SDS011;40801;41.924;25.562;2023-10-31T12:20:49;3.15;;;1.70;;
54899;SDS011;40801;41.924;25.562;2023-10-31T12:23:17;5.07;;;1.92;;
54899;SDS011;40801;41.924;25.562;2023-10-31T12:25:46;4.47;;;2.15;;
54899;SDS011;40801;41.924;25.562;2023-10-31T12:28:20;2.40;;;1.85;;
54899;SDS011;40801;41.924;25.562;2023-10-31T12:30:49;4.57;;;2.13;;
54899;SDS011;40801;41.924;25.562;2023-10-31T12:33:19;2.47;;;1.33;;
54899;SDS011;40801;41.924;25.562;2023-10-31T12:35:45;4.35;;;2.05;;
54899;SDS011;40801;41.924;25.562;2023-10-31T12:38:11;2.42;;;1.77;;
54899;SDS011;40801;41.924;25.562;2023-10-31T12:40:37;4.25;;;1.52;;
54899;SDS011;40801;41.924;25.562;2023-10-31T12:43:04;3.78;;;1.92;;
54899;SDS011;40801;41.924;25.562;2023-10-31T12:45:30;3.45;;;1.60;;
54899;SDS011;40801;41.924;25.562;2023-10-31T12:48:02;2.65;;;1.50;;
54899;SDS011;40801;41.924;25.562;2023-10-31T12:50:37;3.10;;;1.88;;
54899;SDS011;40801;41.924;25.562;2023-10-31T12:53:07;4.25;;;1.75;;
54899;SDS011;40801;41.924;25.562;2023-10-31T12:55:40;2.33;;;1.58;;
54899;SDS011;40801;41.924;25.562;2023-10-31T12:58:06;3.95;;;1.50;;
54899;SDS011;40801;41.924;25.562;2023-10-31T13:00:35;3.42;;;1.83;;
54899;SDS011;40801;41.924;25.562;2023-10-31T13:03:02;2.67;;;1.67;;
54899;SDS011;40801;41.924;25.562;2023-10-31T13:05:31;3.35;;;1.63;;
54899;SDS011;40801;41.924;25.562;2023-10-31T13:07:58;4.30;;;1.95;;
54899;SDS011;40801;41.924;25.562;2023-10-31T13:10:25;2.75;;;1.60;;
54899;SDS011;40801;41.924;25.562;2023-10-31T13:12:52;1.92;;;1.80;;
54899;SDS011;40801;41.924;25.562;2023-10-31T13:15:21;3.53;;;2.03;;
54899;SDS011;40801;41.924;25.562;2023-10-31T13:17:47;3.30;;;1.92;;
54899;SDS011;40801;41.924;25.562;2023-10-31T13:20:14;3.15;;;1.67;;
54899;SDS011;40801;41.924;25.562;2023-10-31T13:22:43;2.92;;;2.10;;
54899;SDS011;40801;41.924;25.562;2023-10-31T13:25:09;1.85;;;1.70;;
54899;SDS011;40801;41.924;25.562;2023-10-31T13:27:45;2.80;;;1.50;;
54899;SDS011;40801;41.924;25.562;2023-10-31T13:30:15;2.22;;;2.03;;
54899;SDS011;40801;41.924;25.562;2023-10-31T13:32:42;3.27;;;1.70;;
54899;SDS011;40801;41.924;25.562;2023-10-31T13:35:08;2.72;;;1.80;;
54899;SDS011;40801;41.924;25.562;2023-10-31T13:37:39;2.45;;;1.92;;
54899;SDS011;40801;41.924;25.562;2023-10-31T13:40:04;2.72;;;2.15;;
54899;SDS011;40801;41.924;25.562;2023-10-31T13:42:33;3.55;;;2.05;;
54899;SDS011;40801;41.924;25.562;2023-10-31T13:44:58;4.25;;;2.80;;
54899;SDS011;40801;41.924;25.562;2023-10-31T13:47:24;4.30;;;2.38;;
54899;SDS011;40801;41.924;25.562;2023-10-31T13:49:49;3.83;;;2.45;;
54899;SDS011;40801;41.924;25.562;2023-10-31T13:52:15;5.65;;;3.47;;
54899;SDS011;40801;41.924;25.562;2023-10-31T13:54:40;6.57;;;2.88;;
54899;SDS011;40801;41.924;25.562;2023-10-31T13:57:06;6.53;;;3.72;;
54899;SDS011;40801;41.924;25.562;2023-10-31T13:59:31;5.00;;;4.40;;
54899;SDS011;40801;41.924;25.562;2023-10-31T14:01:57;7.03;;;4.72;;
54899;SDS011;40801;41.924;25.562;2023-10-31T14:04:22;4.68;;;3.60;;
54899;SDS011;40801;41.924;25.562;2023-10-31T14:06:48;7.18;;;3.63;;
54899;SDS011;40801;41.924;25.562;2023-10-31T14:09:13;6.20;;;3.40;;
54899;SDS011;40801;41.924;25.562;2023-10-31T14:11:40;5.75;;;4.68;;
54899;SDS011;40801;41.924;25.562;2023-10-31T14:14:06;10.40;;;4.65;;
54899;SDS011;40801;41.924;25.562;2023-10-31T14:16:38;8.18;;;4.18;;
54899;SDS011;40801;41.924;25.562;2023-10-31T14:19:06;6.95;;;4.85;;
54899;SDS011;40801;41.924;25.562;2023-10-31T14:21:35;17.92;;;5.93;;
54899;SDS011;40801;41.924;25.562;2023-10-31T14:24:01;6.70;;;4.78;;
54899;SDS011;40801;41.924;25.562;2023-10-31T14:26:28;8.95;;;4.93;;
54899;SDS011;40801;41.924;25.562;2023-10-31T14:28:54;11.68;;;6.30;;